KZR436 UACC-UAAA
Flight info
| Callsign | KZR436 |
|---|---|
| Flight time | 1h 32m |
| Altitude | 35000 |
| Route | BEDKA1B BEDKA T523 KRG W333 ETEDA ETEDA1P |
| Aircraft | A321/M-SDE3FGHIRWY/LB1 |
Departure
| Time | 2026-05-08 14:09 |
|---|---|
| Airport | Nursultan Nazarbayev International Airport (UACC) |
Arrival
| Time | 2026-05-08 15:42 |
|---|---|
| Airport | Almaty International Airport (UAAA) |
| Time | Latitude | Longitude | Altitude | Speed | Heading |
|---|---|---|---|---|---|
| 2026-05-08 13:52 | 51.02627 | 71.45994 | 1163 ft | 0 kts | 29° |
| 2026-05-08 13:59 | 51.02625 | 71.45992 | 1163 ft | 3 kts | 28° |
| 2026-05-08 14:00 | 51.02601 | 71.45974 | 1162 ft | 4 kts | 18° |
| 2026-05-08 14:00 | 51.02575 | 71.45965 | 1161 ft | 4 kts | 3° |
| 2026-05-08 14:00 | 51.02549 | 71.45967 | 1163 ft | 4 kts | 344° |
| 2026-05-08 14:00 | 51.02524 | 71.45983 | 1162 ft | 4 kts | 326° |
| 2026-05-08 14:01 | 51.02503 | 71.46010 | 1163 ft | 4 kts | 318° |
| 2026-05-08 14:01 | 51.02484 | 71.46033 | 1162 ft | 4 kts | 0° |
| 2026-05-08 14:01 | 51.02470 | 71.46021 | 1162 ft | 4 kts | 43° |
| 2026-05-08 14:01 | 51.02451 | 71.45992 | 1163 ft | 4 kts | 45° |
| 2026-05-08 14:02 | 51.02432 | 71.45961 | 1164 ft | 4 kts | 45° |
| 2026-05-08 14:02 | 51.02434 | 71.45968 | 1164 ft | 4 kts | 55° |
| 2026-05-08 14:02 | 51.02440 | 71.45983 | 1160 ft | 0 kts | 60° |
| 2026-05-08 14:04 | 51.02444 | 71.45993 | 1161 ft | 3 kts | 56° |
| 2026-05-08 14:04 | 51.02456 | 71.46044 | 1164 ft | 7 kts | 95° |
| 2026-05-08 14:04 | 51.02424 | 71.46122 | 1162 ft | 10 kts | 136° |
| 2026-05-08 14:04 | 51.02364 | 71.46217 | 1163 ft | 14 kts | 129° |
| 2026-05-08 14:05 | 51.02389 | 71.46363 | 1162 ft | 17 kts | 46° |
| 2026-05-08 14:05 | 51.02481 | 71.46508 | 1164 ft | 20 kts | 44° |
| 2026-05-08 14:05 | 51.02588 | 71.46676 | 1164 ft | 24 kts | 44° |
| 2026-05-08 14:05 | 51.02700 | 71.46851 | 1164 ft | 20 kts | 44° |
| 2026-05-08 14:06 | 51.02711 | 71.46984 | 1163 ft | 12 kts | 127° |
| 2026-05-08 14:06 | 51.02691 | 71.47020 | 1164 ft | 1 kts | 133° |
| 2026-05-08 14:06 | 51.02687 | 71.47028 | 1162 ft | 0 kts | 133° |
| 2026-05-08 14:07 | 51.02684 | 71.47033 | 1163 ft | 2 kts | 133° |
| 2026-05-08 14:07 | 51.02659 | 71.47074 | 1165 ft | 8 kts | 134° |
| 2026-05-08 14:07 | 51.02602 | 71.47126 | 1166 ft | 12 kts | 176° |
| 2026-05-08 14:07 | 51.02549 | 71.47074 | 1165 ft | 0 kts | 222° |
| 2026-05-08 14:08 | 51.02549 | 71.47073 | 1165 ft | 0 kts | 222° |
| 2026-05-08 14:08 | 51.02542 | 71.47064 | 1166 ft | 7 kts | 222° |
| 2026-05-08 14:09 | 51.02359 | 71.46780 | 1167 ft | 78 kts | 224° |
| 2026-05-08 14:09 | 51.01785 | 71.45887 | 1166 ft | 150 kts | 224° |
| 2026-05-08 14:09 | 51.00926 | 71.44536 | 1479 ft | 185 kts | 225° |
| 2026-05-08 14:09 | 51.00008 | 71.43035 | 2213 ft | 192 kts | 225° |
| 2026-05-08 14:10 | 50.99084 | 71.41573 | 2971 ft | 184 kts | 224° |
| 2026-05-08 14:10 | 50.98143 | 71.40130 | 3238 ft | 202 kts | 224° |
| 2026-05-08 14:10 | 50.97067 | 71.38480 | 3462 ft | 227 kts | 224° |
| 2026-05-08 14:10 | 50.95876 | 71.36652 | 3736 ft | 248 kts | 224° |
| 2026-05-08 14:11 | 50.94609 | 71.34701 | 4269 ft | 258 kts | 224° |
| 2026-05-08 14:11 | 50.93125 | 71.33096 | 4941 ft | 264 kts | 199° |
| 2026-05-08 14:11 | 50.91285 | 71.33033 | 5623 ft | 274 kts | 166° |
| 2026-05-08 14:11 | 50.89623 | 71.34567 | 6299 ft | 284 kts | 142° |
| 2026-05-08 14:12 | 50.88244 | 71.36847 | 6938 ft | 290 kts | 133° |
| 2026-05-08 14:12 | 50.86974 | 71.39357 | 7588 ft | 294 kts | 131° |
| 2026-05-08 14:12 | 50.85696 | 71.41905 | 8231 ft | 297 kts | 133° |
| 2026-05-08 14:12 | 50.84279 | 71.44276 | 8892 ft | 298 kts | 139° |
| 2026-05-08 14:13 | 50.82760 | 71.46536 | 9543 ft | 300 kts | 142° |
| 2026-05-08 14:13 | 50.81183 | 71.48726 | 10153 ft | 304 kts | 143° |
| 2026-05-08 14:13 | 50.79519 | 71.50946 | 10330 ft | 324 kts | 144° |
| 2026-05-08 14:13 | 50.77730 | 71.53293 | 10456 ft | 344 kts | 144° |
| 2026-05-08 14:14 | 50.75835 | 71.55777 | 10579 ft | 363 kts | 143° |
| 2026-05-08 14:14 | 50.73847 | 71.58392 | 10705 ft | 380 kts | 143° |
| 2026-05-08 14:14 | 50.71801 | 71.61097 | 10823 ft | 396 kts | 143° |
| 2026-05-08 14:14 | 50.69659 | 71.63945 | 11019 ft | 408 kts | 143° |
| 2026-05-08 14:15 | 50.67479 | 71.66848 | 11455 ft | 412 kts | 143° |
| 2026-05-08 14:15 | 50.65285 | 71.69771 | 11941 ft | 415 kts | 143° |
| 2026-05-08 14:15 | 50.63068 | 71.72722 | 12434 ft | 417 kts | 143° |
| 2026-05-08 14:15 | 50.60843 | 71.75673 | 12916 ft | 420 kts | 143° |
| 2026-05-08 14:16 | 50.58604 | 71.78631 | 13395 ft | 422 kts | 143° |
| 2026-05-08 14:16 | 50.56351 | 71.81605 | 13865 ft | 424 kts | 143° |
| 2026-05-08 14:16 | 50.54083 | 71.84594 | 14283 ft | 426 kts | 144° |
| 2026-05-08 14:16 | 50.51798 | 71.87599 | 14681 ft | 429 kts | 144° |
| 2026-05-08 14:17 | 50.49504 | 71.90614 | 15098 ft | 432 kts | 144° |
| 2026-05-08 14:17 | 50.47194 | 71.93644 | 15504 ft | 434 kts | 144° |
| 2026-05-08 14:17 | 50.44868 | 71.96690 | 15911 ft | 437 kts | 144° |
| 2026-05-08 14:17 | 50.42530 | 71.99748 | 16318 ft | 439 kts | 144° |
| 2026-05-08 14:18 | 50.40174 | 72.02831 | 16705 ft | 442 kts | 144° |
| 2026-05-08 14:18 | 50.38605 | 72.04881 | 16953 ft | 444 kts | 144° |
| 2026-05-08 14:18 | 50.36223 | 72.07985 | 17337 ft | 447 kts | 144° |
| 2026-05-08 14:18 | 50.33822 | 72.11114 | 17716 ft | 450 kts | 145° |
| 2026-05-08 14:19 | 50.31404 | 72.14265 | 18096 ft | 453 kts | 145° |
| 2026-05-08 14:19 | 50.28981 | 72.17417 | 18431 ft | 455 kts | 145° |
| 2026-05-08 14:19 | 50.26539 | 72.20584 | 18756 ft | 457 kts | 145° |
| 2026-05-08 14:19 | 50.24082 | 72.23768 | 19084 ft | 460 kts | 144° |
| 2026-05-08 14:20 | 50.21769 | 72.27275 | 19388 ft | 468 kts | 136° |
| 2026-05-08 14:20 | 50.19760 | 72.31334 | 19698 ft | 474 kts | 130° |
| 2026-05-08 14:20 | 50.17805 | 72.35497 | 20014 ft | 477 kts | 130° |
| 2026-05-08 14:20 | 50.15832 | 72.39679 | 20346 ft | 479 kts | 130° |
| 2026-05-08 14:21 | 50.13846 | 72.43872 | 20670 ft | 481 kts | 131° |
| 2026-05-08 14:21 | 50.11851 | 72.48074 | 20983 ft | 484 kts | 131° |
| 2026-05-08 14:21 | 50.09841 | 72.52303 | 21302 ft | 486 kts | 131° |
| 2026-05-08 14:21 | 50.07842 | 72.56502 | 21599 ft | 489 kts | 131° |
| 2026-05-08 14:22 | 50.05811 | 72.60758 | 21916 ft | 491 kts | 131° |
| 2026-05-08 14:22 | 50.03768 | 72.65028 | 22215 ft | 493 kts | 131° |
| 2026-05-08 14:22 | 50.01712 | 72.69322 | 22387 ft | 497 kts | 131° |
| 2026-05-08 14:22 | 49.99638 | 72.73649 | 22618 ft | 501 kts | 131° |
| 2026-05-08 14:23 | 49.97548 | 72.78007 | 22867 ft | 503 kts | 131° |
| 2026-05-08 14:23 | 49.95457 | 72.82362 | 23117 ft | 505 kts | 131° |
| 2026-05-08 14:23 | 49.93350 | 72.86746 | 23360 ft | 507 kts | 131° |
| 2026-05-08 14:23 | 49.91237 | 72.91140 | 23585 ft | 509 kts | 131° |
| 2026-05-08 14:24 | 49.89117 | 72.95538 | 23757 ft | 510 kts | 131° |
| 2026-05-08 14:24 | 49.86987 | 72.99945 | 23939 ft | 511 kts | 131° |
| 2026-05-08 14:24 | 49.84874 | 73.04302 | 24086 ft | 512 kts | 132° |
| 2026-05-08 14:24 | 49.82700 | 73.08766 | 24286 ft | 513 kts | 132° |
| 2026-05-08 14:25 | 49.80578 | 73.13115 | 24558 ft | 513 kts | 132° |
| 2026-05-08 14:25 | 49.78431 | 73.17514 | 24809 ft | 512 kts | 132° |
| 2026-05-08 14:25 | 49.76287 | 73.21909 | 25074 ft | 511 kts | 132° |
| 2026-05-08 14:25 | 49.74141 | 73.26301 | 25342 ft | 510 kts | 132° |
| 2026-05-08 14:26 | 49.71982 | 73.30635 | 25608 ft | 507 kts | 135° |
| 2026-05-08 14:26 | 49.69537 | 73.34515 | 25869 ft | 499 kts | 144° |
| 2026-05-08 14:26 | 49.66803 | 73.37731 | 26102 ft | 490 kts | 153° |
| 2026-05-08 14:26 | 49.63852 | 73.40262 | 26363 ft | 482 kts | 161° |
| 2026-05-08 14:27 | 49.60770 | 73.42201 | 26626 ft | 477 kts | 165° |
| 2026-05-08 14:27 | 49.57678 | 73.44060 | 26890 ft | 476 kts | 165° |
| 2026-05-08 14:27 | 49.54591 | 73.45914 | 27153 ft | 476 kts | 165° |
| 2026-05-08 14:27 | 49.51512 | 73.47765 | 27429 ft | 475 kts | 165° |
| 2026-05-08 14:28 | 49.48443 | 73.49611 | 27719 ft | 473 kts | 165° |
| 2026-05-08 14:28 | 49.45381 | 73.51451 | 27963 ft | 472 kts | 165° |
| 2026-05-08 14:28 | 49.42318 | 73.53290 | 28250 ft | 471 kts | 165° |
| 2026-05-08 14:28 | 49.39271 | 73.55116 | 28535 ft | 470 kts | 165° |
| 2026-05-08 14:29 | 49.36229 | 73.56933 | 28833 ft | 469 kts | 165° |
| 2026-05-08 14:29 | 49.33224 | 73.58726 | 29119 ft | 468 kts | 165° |
| 2026-05-08 14:29 | 49.30188 | 73.60534 | 29408 ft | 467 kts | 165° |
| 2026-05-08 14:29 | 49.27163 | 73.62331 | 29704 ft | 466 kts | 165° |
| 2026-05-08 14:30 | 49.24145 | 73.64126 | 29979 ft | 464 kts | 165° |
| 2026-05-08 14:30 | 49.21134 | 73.65919 | 30247 ft | 463 kts | 165° |
| 2026-05-08 14:30 | 49.18139 | 73.67701 | 30508 ft | 462 kts | 165° |
| 2026-05-08 14:30 | 49.15146 | 73.69478 | 30769 ft | 460 kts | 165° |
| 2026-05-08 14:31 | 49.12153 | 73.71252 | 31024 ft | 459 kts | 165° |
| 2026-05-08 14:31 | 49.09177 | 73.73012 | 31270 ft | 458 kts | 165° |
| 2026-05-08 14:31 | 49.06247 | 73.74744 | 31516 ft | 457 kts | 165° |
| 2026-05-08 14:32 | 49.00327 | 73.78228 | 31963 ft | 455 kts | 165° |
| 2026-05-08 14:32 | 48.97375 | 73.79961 | 32205 ft | 454 kts | 165° |
| 2026-05-08 14:32 | 48.94427 | 73.81689 | 32447 ft | 454 kts | 165° |
| 2026-05-08 14:32 | 48.91482 | 73.83413 | 32695 ft | 453 kts | 165° |
| 2026-05-08 14:33 | 48.88541 | 73.85131 | 32941 ft | 451 kts | 165° |
| 2026-05-08 14:33 | 48.85613 | 73.86833 | 33178 ft | 450 kts | 165° |
| 2026-05-08 14:33 | 48.82685 | 73.88529 | 33395 ft | 450 kts | 166° |
| 2026-05-08 14:33 | 48.79768 | 73.90217 | 33592 ft | 449 kts | 166° |
| 2026-05-08 14:34 | 48.76848 | 73.91907 | 33810 ft | 449 kts | 166° |
| 2026-05-08 14:34 | 48.73930 | 73.93595 | 34029 ft | 448 kts | 166° |
| 2026-05-08 14:34 | 48.71018 | 73.95280 | 34213 ft | 448 kts | 166° |
| 2026-05-08 14:34 | 48.68111 | 73.96963 | 34376 ft | 448 kts | 166° |
| 2026-05-08 14:35 | 48.65200 | 73.98648 | 34539 ft | 448 kts | 166° |
| 2026-05-08 14:35 | 48.62287 | 74.00328 | 34674 ft | 448 kts | 166° |
| 2026-05-08 14:35 | 48.59367 | 74.02011 | 34829 ft | 448 kts | 166° |
| 2026-05-08 14:35 | 48.56457 | 74.03686 | 34973 ft | 449 kts | 166° |
| 2026-05-08 14:36 | 48.50583 | 74.07056 | 35019 ft | 453 kts | 165° |
| 2026-05-08 14:36 | 48.44678 | 74.10438 | 35021 ft | 454 kts | 165° |
| 2026-05-08 14:37 | 48.38766 | 74.13825 | 35023 ft | 454 kts | 166° |
| 2026-05-08 14:37 | 48.32855 | 74.17201 | 35018 ft | 454 kts | 166° |
| 2026-05-08 14:38 | 48.26936 | 74.20558 | 35028 ft | 455 kts | 166° |
| 2026-05-08 14:38 | 48.21053 | 74.23893 | 35034 ft | 456 kts | 166° |
| 2026-05-08 14:39 | 48.15113 | 74.27260 | 35041 ft | 456 kts | 166° |
| 2026-05-08 14:39 | 48.09169 | 74.30624 | 35044 ft | 456 kts | 165° |
| 2026-05-08 14:40 | 48.03239 | 74.34019 | 35045 ft | 457 kts | 165° |
| 2026-05-08 14:40 | 47.97297 | 74.37417 | 35031 ft | 457 kts | 165° |
| 2026-05-08 14:41 | 47.91356 | 74.40797 | 35049 ft | 457 kts | 166° |
| 2026-05-08 14:41 | 47.85412 | 74.44161 | 35049 ft | 457 kts | 166° |
| 2026-05-08 14:42 | 47.79465 | 74.47520 | 35015 ft | 456 kts | 166° |
| 2026-05-08 14:42 | 47.73526 | 74.50870 | 35034 ft | 457 kts | 166° |
| 2026-05-08 14:43 | 47.67588 | 74.54220 | 35043 ft | 456 kts | 166° |
| 2026-05-08 14:43 | 47.61682 | 74.57540 | 35040 ft | 456 kts | 166° |
| 2026-05-08 14:44 | 47.55747 | 74.60861 | 35028 ft | 456 kts | 166° |
| 2026-05-08 14:44 | 47.49805 | 74.64191 | 35035 ft | 457 kts | 166° |
| 2026-05-08 14:45 | 47.43866 | 74.67526 | 35034 ft | 456 kts | 166° |
| 2026-05-08 14:45 | 47.37915 | 74.70864 | 35017 ft | 456 kts | 166° |
| 2026-05-08 14:46 | 47.31974 | 74.74195 | 35025 ft | 456 kts | 166° |
| 2026-05-08 14:46 | 47.26026 | 74.77509 | 35030 ft | 457 kts | 166° |
| 2026-05-08 14:47 | 47.20083 | 74.80816 | 35013 ft | 457 kts | 165° |
| 2026-05-08 14:47 | 47.14167 | 74.84110 | 35019 ft | 457 kts | 165° |
| 2026-05-08 14:48 | 47.08206 | 74.87415 | 35025 ft | 458 kts | 165° |
| 2026-05-08 14:48 | 47.02234 | 74.90713 | 35026 ft | 458 kts | 165° |
| 2026-05-08 14:49 | 46.96252 | 74.94005 | 35014 ft | 460 kts | 165° |
| 2026-05-08 14:49 | 46.90252 | 74.97300 | 35012 ft | 461 kts | 165° |
| 2026-05-08 14:50 | 46.84258 | 75.00755 | 35014 ft | 464 kts | 162° |
| 2026-05-08 14:50 | 46.78342 | 75.04576 | 34992 ft | 466 kts | 161° |
| 2026-05-08 14:51 | 46.72422 | 75.08472 | 34989 ft | 467 kts | 161° |
| 2026-05-08 14:51 | 46.66462 | 75.12272 | 34996 ft | 467 kts | 162° |
| 2026-05-08 14:52 | 46.57487 | 75.17887 | 34982 ft | 468 kts | 162° |
| 2026-05-08 14:53 | 46.51507 | 75.21638 | 34992 ft | 468 kts | 162° |
| 2026-05-08 14:53 | 46.45520 | 75.25390 | 34989 ft | 469 kts | 162° |
| 2026-05-08 14:54 | 46.39568 | 75.29108 | 34970 ft | 469 kts | 162° |
| 2026-05-08 14:54 | 46.33562 | 75.32848 | 34970 ft | 470 kts | 162° |
| 2026-05-08 14:55 | 46.27550 | 75.36583 | 34964 ft | 470 kts | 162° |
| 2026-05-08 14:55 | 46.21535 | 75.40319 | 34971 ft | 471 kts | 162° |
| 2026-05-08 14:56 | 46.15526 | 75.44066 | 34971 ft | 471 kts | 161° |
| 2026-05-08 14:56 | 46.09511 | 75.47829 | 34972 ft | 471 kts | 161° |
| 2026-05-08 14:57 | 46.03494 | 75.51579 | 34940 ft | 471 kts | 161° |
| 2026-05-08 14:57 | 45.97471 | 75.55317 | 34943 ft | 471 kts | 162° |
| 2026-05-08 14:58 | 45.91434 | 75.59050 | 34944 ft | 472 kts | 162° |
| 2026-05-08 14:58 | 45.85396 | 75.62769 | 34940 ft | 473 kts | 162° |
| 2026-05-08 14:59 | 45.79348 | 75.66496 | 34948 ft | 474 kts | 162° |
| 2026-05-08 14:59 | 45.70247 | 75.72088 | 34953 ft | 475 kts | 162° |
| 2026-05-08 15:00 | 45.64209 | 75.75788 | 34943 ft | 475 kts | 161° |
| 2026-05-08 15:00 | 45.58123 | 75.79505 | 34949 ft | 476 kts | 161° |
| 2026-05-08 15:01 | 45.52030 | 75.83225 | 34959 ft | 476 kts | 161° |
| 2026-05-08 15:01 | 45.45937 | 75.86937 | 34954 ft | 476 kts | 161° |
| 2026-05-08 15:02 | 45.40863 | 75.90013 | 34957 ft | 477 kts | 161° |
| 2026-05-08 15:02 | 45.34747 | 75.93715 | 34962 ft | 478 kts | 161° |
| 2026-05-08 15:03 | 45.28626 | 75.97417 | 34953 ft | 478 kts | 161° |
| 2026-05-08 15:03 | 45.22508 | 76.01091 | 34967 ft | 477 kts | 161° |
| 2026-05-08 15:04 | 45.16399 | 76.04768 | 34969 ft | 477 kts | 161° |
| 2026-05-08 15:04 | 45.10286 | 76.08436 | 34960 ft | 477 kts | 161° |
| 2026-05-08 15:05 | 45.04167 | 76.12089 | 34965 ft | 477 kts | 161° |
| 2026-05-08 15:05 | 44.98055 | 76.15748 | 34969 ft | 476 kts | 161° |
| 2026-05-08 15:06 | 44.91955 | 76.19395 | 34963 ft | 476 kts | 161° |
| 2026-05-08 15:06 | 44.85881 | 76.23013 | 34967 ft | 476 kts | 161° |
| 2026-05-08 15:07 | 44.79769 | 76.26628 | 34971 ft | 476 kts | 161° |
| 2026-05-08 15:07 | 44.73654 | 76.30242 | 34956 ft | 476 kts | 161° |
| 2026-05-08 15:08 | 44.67532 | 76.33855 | 34953 ft | 477 kts | 161° |
| 2026-05-08 15:08 | 44.61405 | 76.37470 | 34956 ft | 477 kts | 161° |
| 2026-05-08 15:09 | 44.55269 | 76.41078 | 34961 ft | 478 kts | 161° |
| 2026-05-08 15:09 | 44.49134 | 76.44661 | 34975 ft | 477 kts | 162° |
| 2026-05-08 15:10 | 44.43014 | 76.48230 | 34984 ft | 475 kts | 163° |
| 2026-05-08 15:10 | 44.39880 | 76.49572 | 34985 ft | 467 kts | 174° |
| 2026-05-08 15:10 | 44.36725 | 76.50064 | 34983 ft | 458 kts | 185° |
| 2026-05-08 15:11 | 44.30577 | 76.48635 | 34987 ft | 443 kts | 205° |
| 2026-05-08 15:11 | 44.25324 | 76.44465 | 34987 ft | 431 kts | 221° |
| 2026-05-08 15:12 | 44.20517 | 76.39455 | 34980 ft | 432 kts | 220° |
| 2026-05-08 15:12 | 44.15694 | 76.34475 | 34984 ft | 432 kts | 220° |
| 2026-05-08 15:13 | 44.10864 | 76.29488 | 34983 ft | 432 kts | 220° |
| 2026-05-08 15:13 | 44.06029 | 76.24526 | 34993 ft | 433 kts | 217° |
| 2026-05-08 15:14 | 44.03341 | 76.22561 | 34990 ft | 440 kts | 205° |
| 2026-05-08 15:14 | 44.00365 | 76.21452 | 34997 ft | 447 kts | 192° |
| 2026-05-08 15:14 | 43.97232 | 76.21285 | 34995 ft | 455 kts | 179° |
| 2026-05-08 15:14 | 43.94089 | 76.22039 | 34977 ft | 460 kts | 172° |
| 2026-05-08 15:15 | 43.90941 | 76.22525 | 34968 ft | 449 kts | 189° |
| 2026-05-08 15:15 | 43.87972 | 76.21531 | 34978 ft | 434 kts | 210° |
| 2026-05-08 15:15 | 43.85580 | 76.19204 | 34975 ft | 421 kts | 231° |
| 2026-05-08 15:15 | 43.83990 | 76.15831 | 34978 ft | 413 kts | 249° |
| 2026-05-08 15:16 | 43.82205 | 76.08271 | 34964 ft | 415 kts | 246° |
| 2026-05-08 15:16 | 43.80594 | 76.04942 | 34969 ft | 420 kts | 232° |
| 2026-05-08 15:16 | 43.78614 | 76.02081 | 34851 ft | 414 kts | 226° |
| 2026-05-08 15:17 | 43.76447 | 75.99513 | 34608 ft | 407 kts | 222° |
| 2026-05-08 15:17 | 43.74249 | 75.97101 | 34366 ft | 397 kts | 225° |
| 2026-05-08 15:17 | 43.72454 | 75.94322 | 34131 ft | 381 kts | 241° |
| 2026-05-08 15:17 | 43.71437 | 75.91034 | 33881 ft | 368 kts | 259° |
| 2026-05-08 15:18 | 43.71256 | 75.87549 | 33611 ft | 363 kts | 275° |
| 2026-05-08 15:18 | 43.71796 | 75.84152 | 33342 ft | 364 kts | 289° |
| 2026-05-08 15:18 | 43.72963 | 75.81042 | 33085 ft | 367 kts | 303° |
| 2026-05-08 15:18 | 43.74688 | 75.78433 | 32816 ft | 371 kts | 317° |
| 2026-05-08 15:19 | 43.76872 | 75.76496 | 32144 ft | 387 kts | 333° |
| 2026-05-08 15:19 | 43.79537 | 75.75502 | 31385 ft | 408 kts | 351° |
| 2026-05-08 15:19 | 43.82402 | 75.75706 | 30768 ft | 419 kts | 9° |
| 2026-05-08 15:19 | 43.85141 | 75.77124 | 30167 ft | 425 kts | 27° |
| 2026-05-08 15:20 | 43.87550 | 75.79502 | 29486 ft | 425 kts | 36° |
| 2026-05-08 15:20 | 43.89822 | 75.82118 | 28796 ft | 421 kts | 38° |
| 2026-05-08 15:20 | 43.91993 | 75.84814 | 28129 ft | 416 kts | 40° |
| 2026-05-08 15:20 | 43.94103 | 75.87533 | 27490 ft | 410 kts | 40° |
| 2026-05-08 15:21 | 43.96097 | 75.90309 | 26847 ft | 405 kts | 50° |
| 2026-05-08 15:21 | 43.97531 | 75.93639 | 26208 ft | 401 kts | 68° |
| 2026-05-08 15:21 | 43.98224 | 75.97347 | 25596 ft | 395 kts | 85° |
| 2026-05-08 15:21 | 43.98130 | 76.01071 | 25017 ft | 389 kts | 103° |
| 2026-05-08 15:22 | 43.97263 | 76.04562 | 24555 ft | 381 kts | 120° |
| 2026-05-08 15:22 | 43.95766 | 76.07544 | 23883 ft | 372 kts | 137° |
| 2026-05-08 15:22 | 43.93778 | 76.09761 | 23077 ft | 363 kts | 153° |
| 2026-05-08 15:22 | 43.91461 | 76.11147 | 21920 ft | 358 kts | 167° |
| 2026-05-08 15:23 | 43.89013 | 76.11587 | 20620 ft | 361 kts | 184° |
| 2026-05-08 15:23 | 43.86555 | 76.11095 | 19645 ft | 354 kts | 199° |
| 2026-05-08 15:23 | 43.84308 | 76.09790 | 18688 ft | 348 kts | 213° |
| 2026-05-08 15:23 | 43.82388 | 76.07778 | 17552 ft | 346 kts | 224° |
| 2026-05-08 15:24 | 43.80589 | 76.05553 | 16417 ft | 346 kts | 224° |
| 2026-05-08 15:24 | 43.78804 | 76.03349 | 15440 ft | 342 kts | 223° |
| 2026-05-08 15:24 | 43.77043 | 76.01178 | 14482 ft | 337 kts | 223° |
| 2026-05-08 15:24 | 43.75289 | 75.99043 | 13524 ft | 337 kts | 220° |
| 2026-05-08 15:25 | 43.73251 | 75.97456 | 12501 ft | 337 kts | 200° |
| 2026-05-08 15:25 | 43.70984 | 75.96749 | 11508 ft | 336 kts | 186° |
| 2026-05-08 15:25 | 43.68668 | 75.96825 | 10540 ft | 333 kts | 171° |
| 2026-05-08 15:25 | 43.66482 | 75.97777 | 9591 ft | 329 kts | 153° |
| 2026-05-08 15:26 | 43.64606 | 75.99549 | 8587 ft | 325 kts | 136° |
| 2026-05-08 15:26 | 43.63191 | 76.01949 | 7623 ft | 322 kts | 120° |
| 2026-05-08 15:26 | 43.62317 | 76.04770 | 6675 ft | 318 kts | 104° |
| 2026-05-08 15:26 | 43.61983 | 76.07755 | 5708 ft | 314 kts | 96° |
| 2026-05-08 15:27 | 43.61755 | 76.10742 | 4838 ft | 309 kts | 96° |
| 2026-05-08 15:27 | 43.61535 | 76.13542 | 4795 ft | 283 kts | 96° |
| 2026-05-08 15:27 | 43.61319 | 76.16231 | 4801 ft | 281 kts | 97° |
| 2026-05-08 15:27 | 43.61106 | 76.18861 | 4798 ft | 278 kts | 97° |
| 2026-05-08 15:28 | 43.60893 | 76.21512 | 4797 ft | 279 kts | 97° |
| 2026-05-08 15:28 | 43.60681 | 76.24176 | 4783 ft | 279 kts | 97° |
| 2026-05-08 15:28 | 43.60305 | 76.26782 | 4657 ft | 276 kts | 109° |
| 2026-05-08 15:28 | 43.59512 | 76.29180 | 4533 ft | 274 kts | 123° |
| 2026-05-08 15:29 | 43.58353 | 76.31241 | 4406 ft | 271 kts | 135° |
| 2026-05-08 15:29 | 43.56898 | 76.32881 | 4286 ft | 270 kts | 148° |
| 2026-05-08 15:29 | 43.55219 | 76.34030 | 4175 ft | 269 kts | 161° |
| 2026-05-08 15:29 | 43.53415 | 76.34684 | 4053 ft | 268 kts | 168° |
| 2026-05-08 15:30 | 43.51602 | 76.35248 | 4092 ft | 266 kts | 167° |
| 2026-05-08 15:30 | 43.49792 | 76.35862 | 4173 ft | 269 kts | 162° |
| 2026-05-08 15:30 | 43.48070 | 76.36856 | 4192 ft | 269 kts | 152° |
| 2026-05-08 15:30 | 43.46521 | 76.38256 | 4191 ft | 270 kts | 142° |
| 2026-05-08 15:31 | 43.45136 | 76.40003 | 4196 ft | 271 kts | 137° |
| 2026-05-08 15:31 | 43.43780 | 76.41800 | 4193 ft | 271 kts | 137° |
| 2026-05-08 15:31 | 43.42415 | 76.43595 | 4195 ft | 271 kts | 137° |
| 2026-05-08 15:31 | 43.41046 | 76.45384 | 4203 ft | 271 kts | 137° |
| 2026-05-08 15:32 | 43.39680 | 76.47170 | 4204 ft | 271 kts | 137° |
| 2026-05-08 15:32 | 43.38318 | 76.48954 | 4203 ft | 271 kts | 137° |
| 2026-05-08 15:32 | 43.36958 | 76.50736 | 4196 ft | 270 kts | 137° |
| 2026-05-08 15:32 | 43.35590 | 76.52525 | 4199 ft | 270 kts | 137° |
| 2026-05-08 15:33 | 43.34229 | 76.54307 | 4229 ft | 270 kts | 137° |
| 2026-05-08 15:33 | 43.32864 | 76.56089 | 4228 ft | 270 kts | 138° |
| 2026-05-08 15:33 | 43.31498 | 76.57866 | 4230 ft | 270 kts | 138° |
| 2026-05-08 15:33 | 43.30152 | 76.59619 | 4723 ft | 267 kts | 138° |
| 2026-05-08 15:34 | 43.28860 | 76.61304 | 5194 ft | 255 kts | 137° |
| 2026-05-08 15:34 | 43.27583 | 76.62976 | 5760 ft | 254 kts | 135° |
| 2026-05-08 15:34 | 43.26517 | 76.64942 | 6011 ft | 260 kts | 118° |
| 2026-05-08 15:34 | 43.25919 | 76.67268 | 5889 ft | 259 kts | 102° |
| 2026-05-08 15:35 | 43.25547 | 76.69687 | 5768 ft | 258 kts | 103° |
| 2026-05-08 15:35 | 43.25159 | 76.72089 | 5644 ft | 258 kts | 104° |
| 2026-05-08 15:35 | 43.24852 | 76.73938 | 5545 ft | 253 kts | 104° |
| 2026-05-08 15:36 | 43.24525 | 76.75634 | 5462 ft | 243 kts | 106° |
| 2026-05-08 15:36 | 43.24473 | 76.75901 | 5449 ft | 240 kts | 108° |
| 2026-05-08 15:36 | 43.24269 | 76.76582 | 5403 ft | 233 kts | 122° |
| 2026-05-08 15:37 | 43.23644 | 76.77968 | 5315 ft | 231 kts | 120° |
| 2026-05-08 15:37 | 43.23312 | 76.80050 | 5216 ft | 224 kts | 81° |
| 2026-05-08 15:37 | 43.24056 | 76.81817 | 5182 ft | 213 kts | 38° |
| 2026-05-08 15:37 | 43.25174 | 76.83109 | 5053 ft | 208 kts | 50° |
| 2026-05-08 15:38 | 43.26044 | 76.84665 | 4965 ft | 202 kts | 57° |
| 2026-05-08 15:38 | 43.26791 | 76.86216 | 4855 ft | 188 kts | 59° |
| 2026-05-08 15:38 | 43.27446 | 76.87712 | 4642 ft | 181 kts | 59° |
| 2026-05-08 15:38 | 43.28113 | 76.89154 | 4461 ft | 177 kts | 58° |
| 2026-05-08 15:39 | 43.28795 | 76.90560 | 4233 ft | 176 kts | 57° |
| 2026-05-08 15:39 | 43.29486 | 76.91957 | 4017 ft | 176 kts | 58° |
| 2026-05-08 15:39 | 43.30174 | 76.93342 | 3780 ft | 175 kts | 58° |
| 2026-05-08 15:39 | 43.30853 | 76.94708 | 3565 ft | 171 kts | 57° |
| 2026-05-08 15:40 | 43.31530 | 76.96072 | 3346 ft | 173 kts | 58° |
| 2026-05-08 15:40 | 43.32222 | 76.97416 | 3130 ft | 171 kts | 57° |
| 2026-05-08 15:40 | 43.32885 | 76.98773 | 2889 ft | 170 kts | 60° |
| 2026-05-08 15:40 | 43.33542 | 77.00097 | 2636 ft | 167 kts | 58° |
| 2026-05-08 15:41 | 43.34178 | 77.01417 | 2447 ft | 166 kts | 54° |
| 2026-05-08 15:41 | 43.34830 | 77.02718 | 2253 ft | 165 kts | 56° |
| 2026-05-08 15:41 | 43.35414 | 77.03895 | 2220 ft | 112 kts | 55° |
| 2026-05-08 15:41 | 43.35767 | 77.04600 | 2225 ft | 77 kts | 56° |
| 2026-05-08 15:42 | 43.35958 | 77.04994 | 2222 ft | 29 kts | 68° |
| 2026-05-08 15:42 | 43.36004 | 77.05068 | 2223 ft | 7 kts | 327° |
| 2026-05-08 15:42 | 43.35993 | 77.05026 | 2222 ft | 8 kts | 226° |
| 2026-05-08 15:42 | 43.35980 | 77.05008 | 2223 ft | 14 kts | 226° |
| 2026-05-08 15:43 | 43.35877 | 77.04817 | 2225 ft | 32 kts | 236° |
| 2026-05-08 15:43 | 43.35751 | 77.04565 | 2223 ft | 31 kts | 236° |
| 2026-05-08 15:43 | 43.35628 | 77.04319 | 2226 ft | 31 kts | 235° |
| 2026-05-08 15:43 | 43.35503 | 77.04070 | 2223 ft | 32 kts | 235° |
| 2026-05-08 15:44 | 43.35376 | 77.03821 | 2223 ft | 32 kts | 236° |
| 2026-05-08 15:44 | 43.35295 | 77.03657 | 2225 ft | 31 kts | 236° |
| 2026-05-08 15:44 | 43.35176 | 77.03413 | 2227 ft | 31 kts | 236° |
| 2026-05-08 15:44 | 43.35057 | 77.03168 | 2225 ft | 31 kts | 236° |
| 2026-05-08 15:45 | 43.34933 | 77.02918 | 2223 ft | 32 kts | 235° |
| 2026-05-08 15:45 | 43.34823 | 77.02695 | 2223 ft | 26 kts | 236° |
| 2026-05-08 15:45 | 43.34772 | 77.02536 | 2229 ft | 15 kts | 270° |
| 2026-05-08 15:45 | 43.34785 | 77.02388 | 2227 ft | 17 kts | 277° |
| 2026-05-08 15:46 | 43.34793 | 77.02223 | 2228 ft | 18 kts | 268° |
| 2026-05-08 15:46 | 43.34790 | 77.02046 | 2229 ft | 19 kts | 271° |
| 2026-05-08 15:46 | 43.34802 | 77.01861 | 2226 ft | 20 kts | 275° |
| 2026-05-08 15:46 | 43.34810 | 77.01735 | 2227 ft | 13 kts | 275° |
| 2026-05-08 15:47 | 43.34815 | 77.01628 | 2225 ft | 11 kts | 273° |
| 2026-05-08 15:47 | 43.34819 | 77.01540 | 2228 ft | 5 kts | 271° |
| 2026-05-08 15:47 | 43.34812 | 77.01486 | 2224 ft | 6 kts | 255° |
| 2026-05-08 15:47 | 43.34793 | 77.01423 | 2225 ft | 8 kts | 245° |
| 2026-05-08 15:48 | 43.34733 | 77.01284 | 2225 ft | 2 kts | 245° |
| 2026-05-08 15:48 | 43.34730 | 77.01275 | 2226 ft | 0 kts | 245° |